sensor_id;sensor_type;location;lat;lon;timestamp;P1;durP1;ratioP1;P2;durP2;ratioP2
14516;SDS011;7344;50.864;4.362;2022-08-19T00:00:37;28.75;;;25.70;;
14516;SDS011;7344;50.864;4.362;2022-08-19T00:03:04;27.38;;;24.77;;
14516;SDS011;7344;50.864;4.362;2022-08-19T00:05:30;27.35;;;24.35;;
14516;SDS011;7344;50.864;4.362;2022-08-19T00:07:56;27.65;;;24.83;;
14516;SDS011;7344;50.864;4.362;2022-08-19T00:10:23;27.45;;;24.42;;
14516;SDS011;7344;50.864;4.362;2022-08-19T00:12:49;27.75;;;24.75;;
14516;SDS011;7344;50.864;4.362;2022-08-19T00:15:16;28.58;;;24.17;;
14516;SDS011;7344;50.864;4.362;2022-08-19T00:17:44;31.60;;;27.50;;
14516;SDS011;7344;50.864;4.362;2022-08-19T00:20:11;34.28;;;28.33;;
14516;SDS011;7344;50.864;4.362;2022-08-19T00:22:41;36.30;;;29.45;;
14516;SDS011;7344;50.864;4.362;2022-08-19T00:25:07;37.05;;;29.80;;
14516;SDS011;7344;50.864;4.362;2022-08-19T00:27:33;42.42;;;33.97;;
14516;SDS011;7344;50.864;4.362;2022-08-19T00:29:59;43.10;;;34.88;;
14516;SDS011;7344;50.864;4.362;2022-08-19T00:32:27;47.40;;;37.35;;
14516;SDS011;7344;50.864;4.362;2022-08-19T00:34:53;43.80;;;35.58;;
14516;SDS011;7344;50.864;4.362;2022-08-19T00:37:19;49.80;;;37.90;;
14516;SDS011;7344;50.864;4.362;2022-08-19T00:39:48;45.72;;;37.10;;
14516;SDS011;7344;50.864;4.362;2022-08-19T00:42:16;48.97;;;37.83;;
14516;SDS011;7344;50.864;4.362;2022-08-19T00:44:42;52.53;;;39.13;;
14516;SDS011;7344;50.864;4.362;2022-08-19T00:47:08;52.33;;;40.80;;
14516;SDS011;7344;50.864;4.362;2022-08-19T00:49:35;54.33;;;41.15;;
14516;SDS011;7344;50.864;4.362;2022-08-19T00:52:09;54.53;;;41.95;;
14516;SDS011;7344;50.864;4.362;2022-08-19T00:54:39;53.08;;;40.63;;
14516;SDS011;7344;50.864;4.362;2022-08-19T00:57:08;56.15;;;41.88;;
14516;SDS011;7344;50.864;4.362;2022-08-19T00:59:38;60.55;;;43.38;;
14516;SDS011;7344;50.864;4.362;2022-08-19T01:02:06;54.55;;;40.83;;
14516;SDS011;7344;50.864;4.362;2022-08-19T01:04:32;58.92;;;42.50;;
14516;SDS011;7344;50.864;4.362;2022-08-19T01:06:58;57.85;;;41.42;;
14516;SDS011;7344;50.864;4.362;2022-08-19T01:09:24;56.17;;;42.60;;
14516;SDS011;7344;50.864;4.362;2022-08-19T01:11:50;55.88;;;42.33;;
14516;SDS011;7344;50.864;4.362;2022-08-19T01:14:17;54.20;;;40.20;;
14516;SDS011;7344;50.864;4.362;2022-08-19T01:16:43;55.33;;;41.10;;
14516;SDS011;7344;50.864;4.362;2022-08-19T01:19:24;51.53;;;39.70;;
14516;SDS011;7344;50.864;4.362;2022-08-19T01:22:03;54.03;;;41.67;;
14516;SDS011;7344;50.864;4.362;2022-08-19T01:24:45;53.88;;;38.45;;
14516;SDS011;7344;50.864;4.362;2022-08-19T01:27:11;50.40;;;36.33;;
14516;SDS011;7344;50.864;4.362;2022-08-19T01:29:38;50.67;;;36.42;;
14516;SDS011;7344;50.864;4.362;2022-08-19T01:32:06;46.42;;;35.65;;
14516;SDS011;7344;50.864;4.362;2022-08-19T01:34:33;47.65;;;36.05;;
14516;SDS011;7344;50.864;4.362;2022-08-19T01:36:59;46.50;;;35.90;;
14516;SDS011;7344;50.864;4.362;2022-08-19T01:39:30;44.40;;;36.10;;
14516;SDS011;7344;50.864;4.362;2022-08-19T01:41:55;43.65;;;34.92;;
14516;SDS011;7344;50.864;4.362;2022-08-19T01:44:21;45.00;;;34.25;;
14516;SDS011;7344;50.864;4.362;2022-08-19T01:46:49;44.53;;;35.25;;
14516;SDS011;7344;50.864;4.362;2022-08-19T01:49:17;39.90;;;32.22;;
14516;SDS011;7344;50.864;4.362;2022-08-19T01:51:44;38.70;;;31.75;;
14516;SDS011;7344;50.864;4.362;2022-08-19T01:54:11;41.15;;;31.95;;
14516;SDS011;7344;50.864;4.362;2022-08-19T01:56:38;38.25;;;30.80;;
14516;SDS011;7344;50.864;4.362;2022-08-19T01:59:05;38.05;;;30.85;;
14516;SDS011;7344;50.864;4.362;2022-08-19T02:01:39;39.58;;;31.60;;
14516;SDS011;7344;50.864;4.362;2022-08-19T02:04:05;38.95;;;30.25;;
14516;SDS011;7344;50.864;4.362;2022-08-19T02:06:31;37.92;;;31.23;;
14516;SDS011;7344;50.864;4.362;2022-08-19T02:08:58;37.65;;;29.73;;
14516;SDS011;7344;50.864;4.362;2022-08-19T02:11:28;32.45;;;26.15;;
14516;SDS011;7344;50.864;4.362;2022-08-19T02:13:56;31.42;;;25.33;;
14516;SDS011;7344;50.864;4.362;2022-08-19T02:16:22;30.25;;;25.52;;
14516;SDS011;7344;50.864;4.362;2022-08-19T02:18:48;30.45;;;24.33;;
14516;SDS011;7344;50.864;4.362;2022-08-19T02:21:15;28.50;;;24.92;;
14516;SDS011;7344;50.864;4.362;2022-08-19T02:23:42;29.55;;;24.48;;
14516;SDS011;7344;50.864;4.362;2022-08-19T02:26:07;29.73;;;24.52;;
14516;SDS011;7344;50.864;4.362;2022-08-19T02:28:33;29.90;;;24.15;;
14516;SDS011;7344;50.864;4.362;2022-08-19T02:30:59;29.02;;;24.35;;
14516;SDS011;7344;50.864;4.362;2022-08-19T02:33:25;29.98;;;24.23;;
14516;SDS011;7344;50.864;4.362;2022-08-19T02:35:51;30.88;;;25.45;;
14516;SDS011;7344;50.864;4.362;2022-08-19T02:38:17;31.10;;;26.37;;
14516;SDS011;7344;50.864;4.362;2022-08-19T02:40:59;35.22;;;27.85;;
14516;SDS011;7344;50.864;4.362;2022-08-19T02:43:30;33.63;;;27.40;;
14516;SDS011;7344;50.864;4.362;2022-08-19T02:46:01;33.75;;;27.13;;
14516;SDS011;7344;50.864;4.362;2022-08-19T02:48:35;32.22;;;25.48;;
14516;SDS011;7344;50.864;4.362;2022-08-19T02:51:01;33.28;;;26.15;;
14516;SDS011;7344;50.864;4.362;2022-08-19T02:53:27;30.55;;;24.77;;
14516;SDS011;7344;50.864;4.362;2022-08-19T02:55:53;33.10;;;26.60;;
14516;SDS011;7344;50.864;4.362;2022-08-19T02:58:19;33.30;;;25.53;;
14516;SDS011;7344;50.864;4.362;2022-08-19T03:00:47;34.58;;;26.23;;
14516;SDS011;7344;50.864;4.362;2022-08-19T03:03:17;34.80;;;27.33;;
14516;SDS011;7344;50.864;4.362;2022-08-19T03:05:44;34.55;;;26.50;;
14516;SDS011;7344;50.864;4.362;2022-08-19T03:08:10;33.63;;;27.07;;
14516;SDS011;7344;50.864;4.362;2022-08-19T03:10:41;34.87;;;27.00;;
14516;SDS011;7344;50.864;4.362;2022-08-19T03:13:09;30.43;;;23.20;;
14516;SDS011;7344;50.864;4.362;2022-08-19T03:15:39;31.07;;;24.03;;
14516;SDS011;7344;50.864;4.362;2022-08-19T03:18:05;32.37;;;24.97;;
14516;SDS011;7344;50.864;4.362;2022-08-19T03:20:31;34.10;;;24.83;;
14516;SDS011;7344;50.864;4.362;2022-08-19T03:22:57;33.70;;;26.30;;
14516;SDS011;7344;50.864;4.362;2022-08-19T03:25:23;33.27;;;25.57;;
14516;SDS011;7344;50.864;4.362;2022-08-19T03:27:49;30.37;;;24.17;;
14516;SDS011;7344;50.864;4.362;2022-08-19T03:30:14;35.57;;;26.20;;
14516;SDS011;7344;50.864;4.362;2022-08-19T03:32:40;33.00;;;24.47;;
14516;SDS011;7344;50.864;4.362;2022-08-19T03:35:06;35.63;;;25.70;;
14516;SDS011;7344;50.864;4.362;2022-08-19T03:37:31;31.53;;;24.10;;
14516;SDS011;7344;50.864;4.362;2022-08-19T03:39:57;31.20;;;25.07;;
14516;SDS011;7344;50.864;4.362;2022-08-19T03:42:23;32.63;;;24.77;;
14516;SDS011;7344;50.864;4.362;2022-08-19T03:44:51;32.03;;;24.60;;
14516;SDS011;7344;50.864;4.362;2022-08-19T03:47:17;33.33;;;24.93;;
14516;SDS011;7344;50.864;4.362;2022-08-19T03:49:43;36.07;;;25.60;;
14516;SDS011;7344;50.864;4.362;2022-08-19T03:52:09;31.27;;;23.87;;
14516;SDS011;7344;50.864;4.362;2022-08-19T03:54:35;33.80;;;26.13;;
14516;SDS011;7344;50.864;4.362;2022-08-19T03:57:03;31.77;;;25.07;;
14516;SDS011;7344;50.864;4.362;2022-08-19T03:59:29;31.40;;;25.43;;
14516;SDS011;7344;50.864;4.362;2022-08-19T04:01:57;34.33;;;24.03;;
14516;SDS011;7344;50.864;4.362;2022-08-19T04:04:25;31.23;;;24.67;;
14516;SDS011;7344;50.864;4.362;2022-08-19T04:06:51;35.10;;;25.10;;
14516;SDS011;7344;50.864;4.362;2022-08-19T04:09:16;33.10;;;25.43;;
14516;SDS011;7344;50.864;4.362;2022-08-19T04:11:45;33.80;;;25.37;;
14516;SDS011;7344;50.864;4.362;2022-08-19T04:14:14;32.17;;;24.93;;
14516;SDS011;7344;50.864;4.362;2022-08-19T04:16:43;36.50;;;25.77;;
14516;SDS011;7344;50.864;4.362;2022-08-19T04:19:09;31.33;;;24.90;;
14516;SDS011;7344;50.864;4.362;2022-08-19T04:21:35;34.43;;;25.80;;
14516;SDS011;7344;50.864;4.362;2022-08-19T04:24:01;39.67;;;26.83;;
14516;SDS011;7344;50.864;4.362;2022-08-19T04:26:28;33.00;;;24.37;;
14516;SDS011;7344;50.864;4.362;2022-08-19T04:28:57;35.70;;;26.00;;
14516;SDS011;7344;50.864;4.362;2022-08-19T04:31:25;31.90;;;25.10;;
14516;SDS011;7344;50.864;4.362;2022-08-19T04:33:53;35.47;;;26.00;;
14516;SDS011;7344;50.864;4.362;2022-08-19T04:36:22;37.13;;;25.60;;
14516;SDS011;7344;50.864;4.362;2022-08-19T04:38:53;34.20;;;24.37;;
14516;SDS011;7344;50.864;4.362;2022-08-19T04:41:20;33.87;;;23.73;;
14516;SDS011;7344;50.864;4.362;2022-08-19T04:44:05;35.43;;;24.60;;
14516;SDS011;7344;50.864;4.362;2022-08-19T04:46:32;33.40;;;22.43;;
14516;SDS011;7344;50.864;4.362;2022-08-19T04:48:58;36.80;;;23.43;;
14516;SDS011;7344;50.864;4.362;2022-08-19T04:51:25;29.60;;;22.00;;
14516;SDS011;7344;50.864;4.362;2022-08-19T04:53:51;30.23;;;21.00;;
14516;SDS011;7344;50.864;4.362;2022-08-19T04:56:18;29.53;;;21.47;;
14516;SDS011;7344;50.864;4.362;2022-08-19T04:58:46;25.87;;;20.20;;
14516;SDS011;7344;50.864;4.362;2022-08-19T05:01:33;29.87;;;20.97;;
14516;SDS011;7344;50.864;4.362;2022-08-19T05:03:59;30.43;;;20.20;;
14516;SDS011;7344;50.864;4.362;2022-08-19T05:06:29;28.70;;;19.53;;
14516;SDS011;7344;50.864;4.362;2022-08-19T05:08:57;28.93;;;20.60;;
14516;SDS011;7344;50.864;4.362;2022-08-19T05:11:28;28.90;;;19.73;;
14516;SDS011;7344;50.864;4.362;2022-08-19T05:13:56;24.63;;;19.40;;
14516;SDS011;7344;50.864;4.362;2022-08-19T05:16:23;25.33;;;17.97;;
14516;SDS011;7344;50.864;4.362;2022-08-19T05:18:50;24.17;;;18.27;;
14516;SDS011;7344;50.864;4.362;2022-08-19T05:21:34;26.40;;;17.98;;
14516;SDS011;7344;50.864;4.362;2022-08-19T05:24:19;23.50;;;17.35;;
14516;SDS011;7344;50.864;4.362;2022-08-19T05:26:47;25.58;;;18.35;;
14516;SDS011;7344;50.864;4.362;2022-08-19T05:29:16;24.27;;;18.52;;
14516;SDS011;7344;50.864;4.362;2022-08-19T05:31:46;24.05;;;18.52;;
14516;SDS011;7344;50.864;4.362;2022-08-19T05:34:14;26.73;;;18.48;;
14516;SDS011;7344;50.864;4.362;2022-08-19T05:36:40;24.85;;;17.65;;
14516;SDS011;7344;50.864;4.362;2022-08-19T05:39:08;25.23;;;18.00;;
14516;SDS011;7344;50.864;4.362;2022-08-19T05:41:36;26.27;;;16.60;;
14516;SDS011;7344;50.864;4.362;2022-08-19T05:44:06;22.48;;;15.95;;
14516;SDS011;7344;50.864;4.362;2022-08-19T05:46:34;21.50;;;15.65;;
14516;SDS011;7344;50.864;4.362;2022-08-19T05:49:00;24.90;;;15.88;;
14516;SDS011;7344;50.864;4.362;2022-08-19T05:51:26;19.63;;;14.45;;
14516;SDS011;7344;50.864;4.362;2022-08-19T05:53:51;21.15;;;14.35;;
14516;SDS011;7344;50.864;4.362;2022-08-19T05:56:17;20.48;;;15.27;;
14516;SDS011;7344;50.864;4.362;2022-08-19T05:58:44;20.45;;;14.52;;
14516;SDS011;7344;50.864;4.362;2022-08-19T06:01:11;21.83;;;14.93;;
14516;SDS011;7344;50.864;4.362;2022-08-19T06:03:38;24.33;;;15.23;;
14516;SDS011;7344;50.864;4.362;2022-08-19T06:06:04;23.65;;;14.85;;
14516;SDS011;7344;50.864;4.362;2022-08-19T06:08:32;24.17;;;14.73;;
14516;SDS011;7344;50.864;4.362;2022-08-19T06:10:58;20.15;;;13.15;;
14516;SDS011;7344;50.864;4.362;2022-08-19T06:13:38;22.00;;;12.40;;
14516;SDS011;7344;50.864;4.362;2022-08-19T06:16:03;20.33;;;12.00;;
14516;SDS011;7344;50.864;4.362;2022-08-19T06:18:29;17.58;;;11.68;;
14516;SDS011;7344;50.864;4.362;2022-08-19T06:20:55;17.98;;;12.07;;
14516;SDS011;7344;50.864;4.362;2022-08-19T06:23:20;15.00;;;12.07;;
14516;SDS011;7344;50.864;4.362;2022-08-19T06:25:46;17.52;;;11.32;;
14516;SDS011;7344;50.864;4.362;2022-08-19T06:28:12;17.00;;;11.35;;
14516;SDS011;7344;50.864;4.362;2022-08-19T06:30:38;15.88;;;11.05;;
14516;SDS011;7344;50.864;4.362;2022-08-19T06:33:03;17.90;;;10.70;;
14516;SDS011;7344;50.864;4.362;2022-08-19T06:35:29;13.90;;;10.20;;
14516;SDS011;7344;50.864;4.362;2022-08-19T06:37:55;16.63;;;10.05;;
14516;SDS011;7344;50.864;4.362;2022-08-19T06:40:20;15.20;;;9.50;;
14516;SDS011;7344;50.864;4.362;2022-08-19T06:42:46;13.50;;;9.02;;
14516;SDS011;7344;50.864;4.362;2022-08-19T06:45:12;15.65;;;9.20;;
14516;SDS011;7344;50.864;4.362;2022-08-19T06:47:37;14.45;;;9.10;;
14516;SDS011;7344;50.864;4.362;2022-08-19T06:50:03;16.73;;;9.02;;
14516;SDS011;7344;50.864;4.362;2022-08-19T06:52:30;15.57;;;9.35;;
14516;SDS011;7344;50.864;4.362;2022-08-19T06:54:57;16.00;;;9.10;;
14516;SDS011;7344;50.864;4.362;2022-08-19T06:57:23;9.90;;;8.43;;
14516;SDS011;7344;50.864;4.362;2022-08-19T06:59:49;15.85;;;9.30;;
14516;SDS011;7344;50.864;4.362;2022-08-19T07:02:15;11.15;;;8.52;;
14516;SDS011;7344;50.864;4.362;2022-08-19T07:04:41;13.23;;;8.90;;
14516;SDS011;7344;50.864;4.362;2022-08-19T07:07:08;13.07;;;8.60;;
14516;SDS011;7344;50.864;4.362;2022-08-19T07:09:37;10.68;;;8.43;;
14516;SDS011;7344;50.864;4.362;2022-08-19T07:12:06;13.05;;;8.70;;
14516;SDS011;7344;50.864;4.362;2022-08-19T07:14:34;11.52;;;7.78;;
14516;SDS011;7344;50.864;4.362;2022-08-19T07:17:02;14.30;;;9.00;;
14516;SDS011;7344;50.864;4.362;2022-08-19T07:19:29;11.23;;;8.80;;
14516;SDS011;7344;50.864;4.362;2022-08-19T07:21:56;9.57;;;7.45;;
14516;SDS011;7344;50.864;4.362;2022-08-19T07:24:25;13.05;;;8.88;;
14516;SDS011;7344;50.864;4.362;2022-08-19T07:26:52;10.73;;;8.38;;
14516;SDS011;7344;50.864;4.362;2022-08-19T07:29:20;10.52;;;8.27;;
14516;SDS011;7344;50.864;4.362;2022-08-19T07:31:48;12.88;;;8.52;;
14516;SDS011;7344;50.864;4.362;2022-08-19T07:34:14;9.15;;;7.47;;
14516;SDS011;7344;50.864;4.362;2022-08-19T07:36:41;8.07;;;7.28;;
14516;SDS011;7344;50.864;4.362;2022-08-19T07:39:09;9.77;;;6.55;;
14516;SDS011;7344;50.864;4.362;2022-08-19T07:41:39;11.38;;;7.18;;
14516;SDS011;7344;50.864;4.362;2022-08-19T07:44:06;8.23;;;6.32;;
14516;SDS011;7344;50.864;4.362;2022-08-19T07:46:33;11.57;;;6.55;;
14516;SDS011;7344;50.864;4.362;2022-08-19T07:49:00;8.75;;;6.07;;
14516;SDS011;7344;50.864;4.362;2022-08-19T07:51:27;8.93;;;5.85;;
14516;SDS011;7344;50.864;4.362;2022-08-19T07:53:53;10.98;;;6.90;;
14516;SDS011;7344;50.864;4.362;2022-08-19T07:56:20;8.77;;;6.30;;
14516;SDS011;7344;50.864;4.362;2022-08-19T07:58:47;10.40;;;6.10;;
14516;SDS011;7344;50.864;4.362;2022-08-19T08:01:16;9.35;;;6.72;;
14516;SDS011;7344;50.864;4.362;2022-08-19T08:03:44;8.52;;;7.53;;
14516;SDS011;7344;50.864;4.362;2022-08-19T08:06:29;7.88;;;7.07;;
14516;SDS011;7344;50.864;4.362;2022-08-19T08:09:14;9.25;;;7.00;;
14516;SDS011;7344;50.864;4.362;2022-08-19T08:11:54;9.10;;;6.45;;
14516;SDS011;7344;50.864;4.362;2022-08-19T08:14:26;8.77;;;6.40;;
14516;SDS011;7344;50.864;4.362;2022-08-19T08:16:58;7.15;;;6.30;;
14516;SDS011;7344;50.864;4.362;2022-08-19T08:19:25;6.88;;;6.18;;
14516;SDS011;7344;50.864;4.362;2022-08-19T08:21:53;6.57;;;5.60;;
14516;SDS011;7344;50.864;4.362;2022-08-19T08:24:20;8.10;;;5.47;;
14516;SDS011;7344;50.864;4.362;2022-08-19T08:26:45;8.48;;;6.03;;
14516;SDS011;7344;50.864;4.362;2022-08-19T08:29:11;6.13;;;5.53;;
14516;SDS011;7344;50.864;4.362;2022-08-19T08:31:42;7.03;;;6.32;;
14516;SDS011;7344;50.864;4.362;2022-08-19T08:34:10;7.75;;;5.60;;
14516;SDS011;7344;50.864;4.362;2022-08-19T08:36:37;6.70;;;6.03;;
14516;SDS011;7344;50.864;4.362;2022-08-19T08:39:09;7.93;;;5.72;;
14516;SDS011;7344;50.864;4.362;2022-08-19T08:44:20;9.23;;;6.30;;
14516;SDS011;7344;50.864;4.362;2022-08-19T08:46:58;9.82;;;6.15;;
14516;SDS011;7344;50.864;4.362;2022-08-19T08:54:48;8.93;;;6.05;;
14516;SDS011;7344;50.864;4.362;2022-08-19T08:57:29;9.43;;;6.13;;
14516;SDS011;7344;50.864;4.362;2022-08-19T09:00:11;12.00;;;6.45;;
14516;SDS011;7344;50.864;4.362;2022-08-19T09:02:42;7.30;;;6.18;;
14516;SDS011;7344;50.864;4.362;2022-08-19T09:05:08;9.93;;;6.18;;
14516;SDS011;7344;50.864;4.362;2022-08-19T09:15:40;6.72;;;5.38;;
14516;SDS011;7344;50.864;4.362;2022-08-19T09:18:13;11.52;;;5.70;;
14516;SDS011;7344;50.864;4.362;2022-08-19T09:20:39;6.32;;;5.72;;
14516;SDS011;7344;50.864;4.362;2022-08-19T09:23:04;8.32;;;5.90;;
14516;SDS011;7344;50.864;4.362;2022-08-19T09:25:30;6.13;;;5.53;;
14516;SDS011;7344;50.864;4.362;2022-08-19T09:27:57;6.53;;;5.65;;
14516;SDS011;7344;50.864;4.362;2022-08-19T09:30:28;10.77;;;5.80;;
14516;SDS011;7344;50.864;4.362;2022-08-19T09:32:55;8.82;;;5.45;;
14516;SDS011;7344;50.864;4.362;2022-08-19T09:35:22;7.00;;;5.93;;
14516;SDS011;7344;50.864;4.362;2022-08-19T09:37:50;7.53;;;5.45;;
14516;SDS011;7344;50.864;4.362;2022-08-19T09:40:16;6.25;;;5.20;;
14516;SDS011;7344;50.864;4.362;2022-08-19T09:42:43;6.15;;;5.45;;
14516;SDS011;7344;50.864;4.362;2022-08-19T09:45:12;5.95;;;5.40;;
14516;SDS011;7344;50.864;4.362;2022-08-19T09:47:39;8.88;;;5.60;;
14516;SDS011;7344;50.864;4.362;2022-08-19T09:50:05;9.35;;;5.55;;
14516;SDS011;7344;50.864;4.362;2022-08-19T09:52:33;5.63;;;4.90;;
14516;SDS011;7344;50.864;4.362;2022-08-19T09:55:02;8.55;;;5.88;;
14516;SDS011;7344;50.864;4.362;2022-08-19T09:57:28;6.80;;;5.13;;
14516;SDS011;7344;50.864;4.362;2022-08-19T09:59:54;7.53;;;5.47;;
14516;SDS011;7344;50.864;4.362;2022-08-19T10:02:20;5.90;;;5.32;;
14516;SDS011;7344;50.864;4.362;2022-08-19T10:04:45;5.78;;;5.13;;
14516;SDS011;7344;50.864;4.362;2022-08-19T10:07:30;7.22;;;6.53;;
14516;SDS011;7344;50.864;4.362;2022-08-19T10:09:56;6.32;;;5.15;;
14516;SDS011;7344;50.864;4.362;2022-08-19T10:12:21;6.75;;;5.40;;
14516;SDS011;7344;50.864;4.362;2022-08-19T10:14:47;5.28;;;4.78;;
14516;SDS011;7344;50.864;4.362;2022-08-19T10:17:13;5.40;;;4.72;;
14516;SDS011;7344;50.864;4.362;2022-08-19T10:19:39;7.20;;;4.95;;
14516;SDS011;7344;50.864;4.362;2022-08-19T10:22:06;8.10;;;4.80;;
14516;SDS011;7344;50.864;4.362;2022-08-19T10:24:32;6.07;;;4.40;;
14516;SDS011;7344;50.864;4.362;2022-08-19T10:27:00;5.68;;;4.57;;
14516;SDS011;7344;50.864;4.362;2022-08-19T10:29:30;6.68;;;5.30;;
14516;SDS011;7344;50.864;4.362;2022-08-19T10:31:56;5.50;;;4.50;;
14516;SDS011;7344;50.864;4.362;2022-08-19T10:34:23;7.25;;;5.40;;
14516;SDS011;7344;50.864;4.362;2022-08-19T10:36:50;5.75;;;4.90;;
14516;SDS011;7344;50.864;4.362;2022-08-19T10:39:16;5.45;;;5.05;;
14516;SDS011;7344;50.864;4.362;2022-08-19T10:41:42;6.97;;;5.90;;
14516;SDS011;7344;50.864;4.362;2022-08-19T10:44:09;6.05;;;5.32;;
14516;SDS011;7344;50.864;4.362;2022-08-19T10:46:37;9.98;;;6.60;;
14516;SDS011;7344;50.864;4.362;2022-08-19T10:49:07;6.85;;;6.18;;
14516;SDS011;7344;50.864;4.362;2022-08-19T10:51:33;7.18;;;6.57;;
14516;SDS011;7344;50.864;4.362;2022-08-19T10:54:17;7.20;;;6.45;;
14516;SDS011;7344;50.864;4.362;2022-08-19T10:56:43;9.45;;;6.55;;
14516;SDS011;7344;50.864;4.362;2022-08-19T11:01:45;11.65;;;6.43;;
14516;SDS011;7344;50.864;4.362;2022-08-19T11:04:12;8.68;;;6.15;;
14516;SDS011;7344;50.864;4.362;2022-08-19T11:06:39;8.00;;;6.30;;
14516;SDS011;7344;50.864;4.362;2022-08-19T11:09:08;7.55;;;6.57;;
14516;SDS011;7344;50.864;4.362;2022-08-19T11:11:35;8.40;;;6.30;;
14516;SDS011;7344;50.864;4.362;2022-08-19T11:14:05;6.63;;;5.93;;
14516;SDS011;7344;50.864;4.362;2022-08-19T11:16:32;6.72;;;6.10;;
14516;SDS011;7344;50.864;4.362;2022-08-19T11:18:58;6.30;;;5.72;;
14516;SDS011;7344;50.864;4.362;2022-08-19T11:21:28;6.47;;;5.25;;
14516;SDS011;7344;50.864;4.362;2022-08-19T11:24:00;7.63;;;5.50;;
14516;SDS011;7344;50.864;4.362;2022-08-19T11:26:29;8.70;;;5.32;;
14516;SDS011;7344;50.864;4.362;2022-08-19T11:28:55;6.28;;;5.75;;
14516;SDS011;7344;50.864;4.362;2022-08-19T11:31:23;6.00;;;5.50;;
14516;SDS011;7344;50.864;4.362;2022-08-19T11:33:55;5.63;;;5.18;;
14516;SDS011;7344;50.864;4.362;2022-08-19T11:36:26;8.80;;;7.90;;
14516;SDS011;7344;50.864;4.362;2022-08-19T11:38:53;9.80;;;8.85;;
14516;SDS011;7344;50.864;4.362;2022-08-19T11:41:19;11.32;;;9.32;;
14516;SDS011;7344;50.864;4.362;2022-08-19T11:43:48;9.98;;;9.02;;
14516;SDS011;7344;50.864;4.362;2022-08-19T11:46:15;10.38;;;9.07;;
14516;SDS011;7344;50.864;4.362;2022-08-19T11:48:42;9.25;;;8.55;;
14516;SDS011;7344;50.864;4.362;2022-08-19T11:51:09;9.57;;;8.70;;
14516;SDS011;7344;50.864;4.362;2022-08-19T11:53:42;9.93;;;8.52;;
14516;SDS011;7344;50.864;4.362;2022-08-19T11:56:08;8.88;;;8.18;;
14516;SDS011;7344;50.864;4.362;2022-08-19T11:58:34;8.68;;;7.90;;
14516;SDS011;7344;50.864;4.362;2022-08-19T12:01:00;13.20;;;8.13;;
14516;SDS011;7344;50.864;4.362;2022-08-19T12:03:29;8.85;;;7.90;;
14516;SDS011;7344;50.864;4.362;2022-08-19T12:05:55;9.40;;;8.48;;
14516;SDS011;7344;50.864;4.362;2022-08-19T12:08:21;7.70;;;7.10;;
14516;SDS011;7344;50.864;4.362;2022-08-19T12:10:47;8.23;;;7.43;;
14516;SDS011;7344;50.864;4.362;2022-08-19T12:13:13;7.13;;;6.43;;
14516;SDS011;7344;50.864;4.362;2022-08-19T12:15:43;6.85;;;6.15;;
14516;SDS011;7344;50.864;4.362;2022-08-19T12:18:10;7.70;;;6.22;;
14516;SDS011;7344;50.864;4.362;2022-08-19T12:20:39;6.00;;;5.50;;
14516;SDS011;7344;50.864;4.362;2022-08-19T12:23:07;6.10;;;5.70;;
14516;SDS011;7344;50.864;4.362;2022-08-19T12:25:34;5.75;;;5.25;;
14516;SDS011;7344;50.864;4.362;2022-08-19T12:28:01;6.28;;;5.78;;
14516;SDS011;7344;50.864;4.362;2022-08-19T12:30:27;5.70;;;5.20;;
14516;SDS011;7344;50.864;4.362;2022-08-19T12:32:53;5.70;;;5.10;;
14516;SDS011;7344;50.864;4.362;2022-08-19T12:35:19;5.55;;;5.05;;
14516;SDS011;7344;50.864;4.362;2022-08-19T12:37:45;7.10;;;4.60;;
14516;SDS011;7344;50.864;4.362;2022-08-19T12:40:13;4.60;;;3.65;;
14516;SDS011;7344;50.864;4.362;2022-08-19T12:42:40;3.83;;;3.50;;
14516;SDS011;7344;50.864;4.362;2022-08-19T12:45:09;4.13;;;3.83;;
14516;SDS011;7344;50.864;4.362;2022-08-19T12:47:36;4.25;;;3.83;;
14516;SDS011;7344;50.864;4.362;2022-08-19T12:50:02;3.80;;;3.50;;
14516;SDS011;7344;50.864;4.362;2022-08-19T12:52:28;4.68;;;3.47;;
14516;SDS011;7344;50.864;4.362;2022-08-19T12:54:54;3.70;;;3.42;;
14516;SDS011;7344;50.864;4.362;2022-08-19T12:57:22;3.75;;;3.45;;
14516;SDS011;7344;50.864;4.362;2022-08-19T12:59:51;3.72;;;3.42;;
14516;SDS011;7344;50.864;4.362;2022-08-19T13:02:22;4.70;;;3.35;;
14516;SDS011;7344;50.864;4.362;2022-08-19T13:04:47;4.22;;;3.92;;
14516;SDS011;7344;50.864;4.362;2022-08-19T13:07:13;5.18;;;3.65;;
14516;SDS011;7344;50.864;4.362;2022-08-19T13:09:39;3.50;;;3.20;;
14516;SDS011;7344;50.864;4.362;2022-08-19T13:12:08;3.28;;;2.67;;
14516;SDS011;7344;50.864;4.362;2022-08-19T13:14:37;4.25;;;3.13;;
14516;SDS011;7344;50.864;4.362;2022-08-19T13:17:05;3.10;;;2.80;;
14516;SDS011;7344;50.864;4.362;2022-08-19T13:19:31;2.83;;;2.63;;
14516;SDS011;7344;50.864;4.362;2022-08-19T13:21:56;3.70;;;3.30;;
14516;SDS011;7344;50.864;4.362;2022-08-19T13:24:23;3.13;;;2.42;;
14516;SDS011;7344;50.864;4.362;2022-08-19T13:26:48;3.65;;;2.80;;
14516;SDS011;7344;50.864;4.362;2022-08-19T13:29:14;3.45;;;2.47;;
14516;SDS011;7344;50.864;4.362;2022-08-19T13:31:58;3.67;;;2.45;;
14516;SDS011;7344;50.864;4.362;2022-08-19T13:34:42;3.03;;;2.60;;
14516;SDS011;7344;50.864;4.362;2022-08-19T13:37:08;3.70;;;2.63;;
14516;SDS011;7344;50.864;4.362;2022-08-19T13:39:34;2.95;;;2.75;;
14516;SDS011;7344;50.864;4.362;2022-08-19T13:42:00;3.50;;;3.20;;
14516;SDS011;7344;50.864;4.362;2022-08-19T13:44:27;4.90;;;3.13;;
14516;SDS011;7344;50.864;4.362;2022-08-19T13:47:00;2.80;;;2.60;;
14516;SDS011;7344;50.864;4.362;2022-08-19T13:49:30;2.55;;;2.45;;
14516;SDS011;7344;50.864;4.362;2022-08-19T13:51:56;4.13;;;2.95;;
14516;SDS011;7344;50.864;4.362;2022-08-19T13:54:22;3.88;;;2.53;;
14516;SDS011;7344;50.864;4.362;2022-08-19T13:56:48;2.67;;;2.47;;
14516;SDS011;7344;50.864;4.362;2022-08-19T13:59:13;3.72;;;2.53;;
14516;SDS011;7344;50.864;4.362;2022-08-19T14:01:39;2.90;;;2.63;;
14516;SDS011;7344;50.864;4.362;2022-08-19T14:04:05;4.15;;;3.10;;
14516;SDS011;7344;50.864;4.362;2022-08-19T14:06:31;6.07;;;2.80;;
14516;SDS011;7344;50.864;4.362;2022-08-19T14:08:57;4.47;;;3.15;;
14516;SDS011;7344;50.864;4.362;2022-08-19T14:11:23;4.03;;;3.10;;
14516;SDS011;7344;50.864;4.362;2022-08-19T14:13:49;6.07;;;2.60;;
14516;SDS011;7344;50.864;4.362;2022-08-19T14:16:15;14.57;;;3.15;;
14516;SDS011;7344;50.864;4.362;2022-08-19T14:18:41;5.65;;;2.90;;
14516;SDS011;7344;50.864;4.362;2022-08-19T14:21:07;4.18;;;2.60;;
14516;SDS011;7344;50.864;4.362;2022-08-19T14:23:38;3.75;;;3.13;;
14516;SDS011;7344;50.864;4.362;2022-08-19T14:26:08;4.93;;;3.35;;
14516;SDS011;7344;50.864;4.362;2022-08-19T14:28:36;5.75;;;2.85;;
14516;SDS011;7344;50.864;4.362;2022-08-19T14:31:02;3.33;;;2.90;;
14516;SDS011;7344;50.864;4.362;2022-08-19T14:33:28;3.03;;;2.40;;
14516;SDS011;7344;50.864;4.362;2022-08-19T14:35:53;2.78;;;2.00;;
14516;SDS011;7344;50.864;4.362;2022-08-19T14:38:19;1.90;;;1.80;;
14516;SDS011;7344;50.864;4.362;2022-08-19T14:40:45;2.40;;;2.10;;
14516;SDS011;7344;50.864;4.362;2022-08-19T14:43:11;2.65;;;2.38;;
14516;SDS011;7344;50.864;4.362;2022-08-19T14:45:38;3.10;;;2.50;;
14516;SDS011;7344;50.864;4.362;2022-08-19T14:48:04;3.33;;;2.47;;
14516;SDS011;7344;50.864;4.362;2022-08-19T14:50:31;3.05;;;2.75;;
14516;SDS011;7344;50.864;4.362;2022-08-19T14:53:02;3.85;;;3.38;;
14516;SDS011;7344;50.864;4.362;2022-08-19T14:55:30;3.85;;;2.90;;
14516;SDS011;7344;50.864;4.362;2022-08-19T14:57:56;3.65;;;2.80;;
14516;SDS011;7344;50.864;4.362;2022-08-19T15:00:23;2.70;;;2.58;;
14516;SDS011;7344;50.864;4.362;2022-08-19T15:02:49;2.15;;;2.00;;
14516;SDS011;7344;50.864;4.362;2022-08-19T15:05:15;1.90;;;1.80;;
14516;SDS011;7344;50.864;4.362;2022-08-19T15:07:41;1.50;;;1.40;;
14516;SDS011;7344;50.864;4.362;2022-08-19T15:10:07;2.25;;;1.60;;